Hauptseite
METAR-TAF:

METAR-TAF

Flughäfen :

Flughafen Perugia

Perugia, Italien

Breite: 43-05N, Länge: 012-30E, Höhe: 208 m

Beobachtung

Neuester Wetterbericht von vor 46 Minuten, um 09:50 UTC
Wind 3 kt aus unterschiedlichen Richtungen
Temperatur 29°C
Luftfeuchtigkeit 40%
Luftdruck 1016 hPa
Sichtweite 10 km oder mehr
keine Wolken unter 1500 m und keine Kumulonimbus oder Gewitterwolken

METAR: LIRZ 180950Z VRB03KT CAVOK 29/14 Q1016

Zeit: 12:36 (10:36 UTC)

Prognose

Neuester Wetterbericht von vor 17 Stunden und 36 Minuten, um 17:00 UTC
Gültige Prognose vom 17 um 18 UTC bis 18 um 18 UTC
Wind 5 kt aus unterschiedlichen Richtungen
Sichtweite 10 km oder mehr
Aufgelockert bewölkt in der Höhe von 3000 ft
Übergehend zu
vom 18 um 10 UTC bis 18 um 12 UTC
Wind 12 kt aus Südwest

TAF: LIRZ 171700Z 1718/1818 VRB05KT 9999 SCT030 BECMG 1810/1812 22012KT

Wetterbeobachtungen und Prognosen von mehr als 4000 Flughäfen (METAR und TAF Bericht).

Die verfügbaren Stationen werden durch gelbe und rote Markierungen auf der Karte dargestellt.

Führen Sie die Maus auf sie, um den Namen der Station zu sehen.

Darauf klicken, um die Beobachtung von Wetterbeobachtungen und Prognosen zu sehen.

Um die Karte zu ändern : klicken Sie auf den grünen Tasten mit einem schwarzen Kreuz Zum Vergrößern, auf den grünen Button mit einem Gedankenstrich zu verkleinern, oder auf die grünen Pfeile für benachbarte Karten.


METAR-TAF: